Nearby METAR Reports

 

K9MN - St Mary Hospital, Minnesota, USA
Distance from station: SW 3mi, 4km
Updated: 08/04/2020 7:55pm
Clear
Clear
 Wind from WNW
Wind: WNW 3 mph , 6 km/h
Temperature: 72°F , 22°C
Dew Point: 46°F , 8°C
Humidity: 41%
Barometer: 30.08 inHg , 1018.6 hPa
Clouds: Clear
Visibility: 10 miles , 16 km
2020/08/05 00:55 K9MN 050055Z AUTO 29003KT 10SM CLR 22/08 A3008 RMK AO1 T02200082
KRST - Rochester, Minnesota, USA
Distance from station: SSW 10mi, 16km
Updated: 08/04/2020 6:54pm
Clear
Clear
 Wind from W
Wind: W 7 mph , 11 km/h
Temperature: 70°F , 21°C
Dew Point: 54°F , 12°C
Humidity: 57%
Barometer: 30.09 inHg , 1019 hPa
Clouds: Clear
Visibility: 10 miles , 16 km
2020/08/04 23:54 KRST 042354Z 27006KT 10SM CLR 21/12 A3009 RMK AO2 SLP189 T02060122 10244 20200 58014
 
KTOB - Dodge Center, Minnesota, USA
Distance from station: W 19mi, 30km
Updated: 08/04/2020 7:55pm
Clear
Clear
 Wind from calm
Wind: Calm
Temperature: 66°F , 19°C
Dew Point: 54°F , 12°C
Humidity: 64%
Barometer: 30.09 inHg , 1019 hPa
Clouds: Clear
Visibility: 10 miles , 16 km
2020/08/05 00:55 KTOB 050055Z AUTO 00000KT 10SM CLR 19/12 A3009 RMK AO2 PWINO
KFKA - Preston, Minnesota, USA
Distance from station: SSE 28mi, 45km
Updated: 08/04/2020 7:55pm
Partly cloudy
Partly cloudy
 Wind from W
Wind: W 3 mph , 6 km/h
Temperature: 66°F , 19°C
Dew Point: 52°F , 11°C
Humidity: 60%
Barometer: 30.09 inHg , 1019 hPa
Clouds: Partly cloudy
Visibility: 10 miles , 16 km
Cloud details: Partly cloudy 8000 ft
2020/08/05 00:55 KFKA 050055Z AUTO 28003KT 10SM SCT080 19/11 A3009 RMK AO2 T01940111
 
KAUM - Austin Muni, Minnesota, USA
Distance from station: SW 35mi, 57km
Updated: 08/04/2020 7:55pm
Clear
Clear
 Wind from calm
Wind: Calm
Temperature: 70°F , 21°C
Dew Point: 52°F , 11°C
Humidity: 53%
Barometer: 30.09 inHg , 1019 hPa
Clouds: Clear
Visibility: 10 miles , 16 km
2020/08/05 00:55 KAUM 050055Z AUTO 00000KT 10SM CLR 21/11 A3009 RMK AO2
KONA - Winona Muni, Minnesota, USA
Distance from station: E 37mi, 59km
Updated: 08/04/2020 7:55pm
Mostly cloudy
Mostly cloudy
 Wind from calm
Wind: Calm
Temperature: 72°F , 22°C
Dew Point: 54°F , 12°C
Humidity: 53%
Barometer: 30.06 inHg , 1017.9 hPa
Clouds: Mostly cloudy
Visibility: 10 miles , 16 km
Cloud details: Mostly cloudy 6000 ft
Mostly cloudy 10000 ft
2020/08/05 00:55 KONA 050055Z AUTO 00000KT 10SM BKN060 BKN100 22/12 A3006 RMK AO2
 
KRGK - Red Wing, Minnesota, USA
Distance from station: N 38mi, 61km
Updated: 08/04/2020 7:55pm
Clear
Clear
 Wind from WNW
Wind: WNW 3 mph , 6 km/h
Temperature: 72°F , 22°C
Dew Point: 48°F , 9°C
Humidity: 44%
Barometer: 30.05 inHg , 1017.6 hPa
Clouds: Clear
Visibility: 10 miles , 16 km
2020/08/05 00:55 KRGK 050055Z AUTO 29003KT 10SM CLR 22/09 A3005 RMK AO2
KOWA - Owatonna, Minnesota, USA
Distance from station: W 41mi, 65km
Updated: 08/04/2020 7:53pm
Clear
Clear
 Wind from WSW
Wind: WSW 3 mph , 6 km/h
Temperature: 66°F , 19°C
Dew Point: 57°F , 14°C
Humidity: 73%
Barometer: 30.08 inHg , 1018.6 hPa
Clouds: Clear
Visibility: 10 miles , 16 km
2020/08/05 00:53 KOWA 050053Z AUTO 24003KT 10SM CLR 19/14 A3008 RMK AO2
 
KSYN - Stanton, Minnesota, USA
Distance from station: NW 42mi, 68km
Updated: 08/04/2020 7:55pm
Clear
Clear
 Wind from WSW
Wind: WSW 6 mph , 9 km/h
Temperature: 70°F , 21°C
Dew Point: 54°F , 12°C
Humidity: 57%
Barometer: 30.06 inHg , 1017.9 hPa
Clouds: Clear
Visibility: 10 miles , 16 km
2020/08/05 00:55 KSYN 050055Z AUTO 25005KT 10SM CLR 21/12 A3006 RMK AO2 T02060115
KFBL - Faribault Muni, Minnesota, USA
Distance from station: WNW 48mi, 77km
Updated: 08/04/2020 7:55pm
Clear
Clear
 Wind from calm
Wind: Calm
Temperature: 68°F , 20°C
Dew Point: 54°F , 12°C
Humidity: 60%
Barometer: 30.08 inHg , 1018.6 hPa
Clouds: Clear
Visibility: 10 miles , 16 km
2020/08/05 00:55 KFBL 050055Z AUTO 00000KT 10SM CLR 20/12 A3008 RMK AO2